Time;durP1;ratioP1;P1;durP2;ratioP2;P2;SDS_P1;SDS_P2;PMS_P1;PMS_P2;Temp;Humidity;BMP_temperature;BMP_pressure;BME280_temperature;BME280_humidity;BME280_pressure;Samples;Min_cycle;Max_cycle;Signal;HPM_P1;HPM_P2
2024/03/07 00:01:21;;;;;;;7.50;4.68;;;23.50;45.50;;;;;;6143866;28;82033;-62
2024/03/07 00:04:22;;;;;;;7.47;5.32;;;23.50;45.60;;;;;;6145712;28;80686;-60
2024/03/07 00:07:22;;;;;;;8.68;5.60;;;23.50;45.60;;;;;;6150629;28;81707;-60
2024/03/07 00:10:23;;;;;;;10.00;5.82;;;23.60;45.60;;;;;;6148975;28;81048;-62
2024/03/07 00:13:23;;;;;;;9.88;6.15;;;23.50;45.60;;;;;;6148693;28;81278;-61
2024/03/07 00:16:24;;;;;;;7.00;5.25;;;23.60;45.60;;;;;;6149970;28;82468;-62
2024/03/07 00:19:26;;;;;;;7.38;5.75;;;23.50;45.50;;;;;;6149852;28;80521;-61
2024/03/07 00:22:29;;;;;;;9.57;5.88;;;23.50;45.50;;;;;;6149663;28;82883;-60
2024/03/07 00:25:31;;;;;;;7.32;5.78;;;23.50;45.50;;;;;;6153868;28;80687;-61
2024/03/07 00:28:38;;;;;;;9.45;6.05;;;23.50;45.40;;;;;;6153371;28;80116;-61
2024/03/07 00:31:39;;;;;;;7.88;5.72;;;23.50;45.40;;;;;;6152493;28;82892;-62
2024/03/07 00:34:39;;;;;;;7.20;5.80;;;23.50;45.50;;;;;;6152318;28;81489;-62
2024/03/07 00:37:40;;;;;;;11.48;5.82;;;23.50;45.40;;;;;;6132823;28;83472;-63
2024/03/07 00:40:41;;;;;;;7.78;6.00;;;23.50;45.50;;;;;;6130947;28;81050;-63
2024/03/07 00:43:42;;;;;;;8.77;6.00;;;23.50;45.60;;;;;;6136076;28;80610;-62
2024/03/07 00:46:42;;;;;;;8.77;5.75;;;23.50;45.50;;;;;;6150326;28;81730;-62
2024/03/07 00:49:43;;;;;;;11.00;5.75;;;23.50;45.70;;;;;;6142661;28;80988;-64
2024/03/07 00:52:43;;;;;;;8.15;5.80;;;23.50;45.60;;;;;;6132277;28;81920;-63
2024/03/07 00:55:44;;;;;;;8.05;6.10;;;23.50;45.80;;;;;;6130253;28;81176;-62
2024/03/07 00:58:45;;;;;;;9.75;6.45;;;23.50;45.60;;;;;;6140030;28;80372;-62
2024/03/07 01:01:46;;;;;;;9.13;6.70;;;23.50;45.40;;;;;;6132707;28;80577;-62
2024/03/07 01:04:47;;;;;;;8.45;6.60;;;23.50;45.20;;;;;;6142495;28;80541;-62
2024/03/07 01:07:47;;;;;;;9.88;6.18;;;23.50;45.20;;;;;;6130694;28;82240;-61
2024/03/07 01:10:48;;;;;;;9.20;6.78;;;23.50;45.10;;;;;;6142369;28;85063;-62
2024/03/07 01:13:49;;;;;;;8.00;5.97;;;23.50;45.00;;;;;;6134618;28;80372;-61
2024/03/07 01:16:49;;;;;;;10.38;6.68;;;23.50;45.00;;;;;;6147067;28;80663;-60
2024/03/07 01:19:50;;;;;;;8.45;6.45;;;23.50;45.00;;;;;;6151671;28;80346;-61
2024/03/07 01:22:51;;;;;;;10.55;6.80;;;23.50;45.00;;;;;;6133732;28;81034;-60
2024/03/07 01:25:51;;;;;;;10.60;7.22;;;23.50;45.00;;;;;;6138303;28;80528;-60
2024/03/07 01:28:52;;;;;;;10.27;7.35;;;23.50;45.00;;;;;;6134342;28;84130;-60
2024/03/07 01:31:53;;;;;;;10.80;8.00;;;23.50;45.00;;;;;;6140148;28;87031;-59
2024/03/07 01:34:54;;;;;;;9.82;7.40;;;23.50;45.00;;;;;;6150565;28;81354;-60
2024/03/07 01:37:55;;;;;;;15.55;7.20;;;23.50;45.00;;;;;;6147956;28;83537;-61
2024/03/07 01:40:55;;;;;;;12.18;7.78;;;23.50;45.00;;;;;;6132707;28;80434;-61
2024/03/07 01:43:56;;;;;;;11.00;7.57;;;23.50;44.90;;;;;;6140348;28;81487;-62
2024/03/07 01:46:56;;;;;;;10.95;7.88;;;23.50;44.90;;;;;;6141344;28;80365;-61
2024/03/07 01:49:59;;;;;;;12.10;7.47;;;23.40;44.90;;;;;;6151721;28;81191;-60
2024/03/07 01:52:59;;;;;;;9.55;6.88;;;23.40;44.90;;;;;;6153302;28;80645;-60
2024/03/07 01:56:00;;;;;;;9.95;7.03;;;23.40;45.00;;;;;;6152948;28;81084;-61
2024/03/07 01:59:00;;;;;;;9.15;6.82;;;23.40;45.00;;;;;;6152144;28;80974;-60
2024/03/07 02:02:02;;;;;;;9.35;6.60;;;23.40;45.00;;;;;;6141743;28;81039;-59
2024/03/07 02:05:02;;;;;;;9.05;6.63;;;23.40;45.10;;;;;;6148099;28;80575;-60
2024/03/07 02:08:03;;;;;;;11.27;7.35;;;23.40;45.20;;;;;;6150289;28;80711;-61
2024/03/07 02:11:03;;;;;;;9.88;6.15;;;23.40;45.10;;;;;;6128501;28;80102;-60
2024/03/07 02:14:04;;;;;;;16.00;7.15;;;23.40;45.10;;;;;;6156230;28;80698;-61
2024/03/07 02:17:04;;;;;;;9.48;6.78;;;23.40;45.00;;;;;;6150690;28;80965;-61
2024/03/07 02:20:07;;;;;;;10.27;7.05;;;23.40;44.90;;;;;;6149943;28;85666;-62
2024/03/07 02:23:08;;;;;;;12.70;8.02;;;23.40;44.90;;;;;;6152338;28;81158;-61
2024/03/07 02:26:08;;;;;;;7.90;6.20;;;23.40;44.90;;;;;;6152264;28;81404;-61
2024/03/07 02:29:10;;;;;;;10.13;6.45;;;23.40;45.00;;;;;;6134151;28;81393;-60
2024/03/07 02:32:11;;;;;;;10.57;7.38;;;23.40;45.00;;;;;;6141284;28;81188;-60
2024/03/07 02:35:15;;;;;;;11.45;7.50;;;23.40;45.00;;;;;;6138053;28;80282;-60
2024/03/07 02:38:17;;;;;;;11.80;6.80;;;23.40;44.90;;;;;;6152440;28;80398;-60
2024/03/07 02:41:18;;;;;;;9.95;7.10;;;23.40;44.90;;;;;;6128299;28;81012;-60
2024/03/07 02:44:19;;;;;;;9.13;7.10;;;23.40;44.90;;;;;;6129037;28;81736;-62
2024/03/07 02:47:20;;;;;;;9.88;6.85;;;23.40;44.90;;;;;;6140178;28;81422;-59
2024/03/07 02:50:21;;;;;;;9.98;7.32;;;23.30;44.90;;;;;;6144104;28;80512;-59
2024/03/07 02:53:22;;;;;;;9.15;6.78;;;23.40;45.20;;;;;;6140652;28;80455;-59
2024/03/07 02:56:22;;;;;;;10.77;7.30;;;23.40;45.00;;;;;;6144433;28;80598;-59
2024/03/07 02:59:23;;;;;;;9.57;6.88;;;23.40;45.30;;;;;;6137256;28;80741;-59
2024/03/07 03:02:24;;;;;;;9.45;6.45;;;23.40;45.20;;;;;;6138160;28;81051;-60
2024/03/07 03:05:24;;;;;;;10.38;7.10;;;23.30;45.20;;;;;;6152216;28;83133;-61
2024/03/07 03:08:25;;;;;;;10.57;7.28;;;23.30;45.20;;;;;;6134295;28;82245;-61
2024/03/07 03:11:25;;;;;;;13.38;7.07;;;23.30;45.10;;;;;;6130959;28;81203;-60
2024/03/07 03:14:26;;;;;;;9.15;6.32;;;23.30;45.10;;;;;;6151404;28;81050;-59
2024/03/07 03:17:26;;;;;;;13.18;6.85;;;23.30;45.20;;;;;;6151520;28;80959;-59
2024/03/07 03:20:38;;;;;;;15.35;7.60;;;23.30;45.20;;;;;;6152463;28;80888;-59
2024/03/07 03:23:40;;;;;;;11.52;6.80;;;23.40;45.20;;;;;;6151961;28;80591;-59
2024/03/07 03:26:42;;;;;;;9.90;6.32;;;23.30;45.10;;;;;;6151333;28;81537;-59
2024/03/07 03:29:43;;;;;;;12.75;7.45;;;23.30;45.00;;;;;;6150679;28;80441;-59
2024/03/07 03:32:43;;;;;;;11.20;7.07;;;23.30;45.00;;;;;;6141892;28;80670;-60
2024/03/07 03:35:44;;;;;;;12.38;7.00;;;23.30;45.00;;;;;;6140601;28;81029;-59
2024/03/07 03:38:45;;;;;;;12.10;6.80;;;23.30;44.90;;;;;;6128139;28;82349;-58
2024/03/07 03:41:46;;;;;;;9.07;6.53;;;23.30;44.90;;;;;;6143042;28;80554;-58
2024/03/07 03:44:46;;;;;;;8.43;6.32;;;23.30;45.00;;;;;;6138056;28;80828;-59
2024/03/07 03:47:47;;;;;;;11.02;6.60;;;23.30;45.00;;;;;;6128252;28;80533;-59
2024/03/07 03:50:48;;;;;;;8.60;6.25;;;23.30;45.10;;;;;;6150585;28;84531;-59
2024/03/07 03:53:48;;;;;;;9.98;5.97;;;23.30;45.10;;;;;;6151389;28;80390;-59
2024/03/07 03:56:49;;;;;;;10.20;6.53;;;23.30;45.00;;;;;;6152031;28;81956;-59
2024/03/07 03:59:49;;;;;;;10.63;6.82;;;23.30;45.00;;;;;;6155394;28;80600;-59
2024/03/07 04:02:51;;;;;;;11.63;7.18;;;23.40;45.00;;;;;;6147232;28;83733;-59
2024/03/07 04:05:51;;;;;;;12.25;7.20;;;23.30;45.00;;;;;;6154083;28;81177;-59
2024/03/07 04:08:52;;;;;;;12.70;7.15;;;23.30;44.90;;;;;;6142900;28;81981;-59
2024/03/07 04:11:52;;;;;;;8.68;6.20;;;23.30;44.80;;;;;;6146928;28;81404;-60
2024/03/07 04:14:54;;;;;;;12.77;8.02;;;23.30;44.80;;;;;;6143555;28;80518;-59
2024/03/07 04:17:56;;;;;;;10.65;6.82;;;23.40;45.00;;;;;;6161578;28;84507;-59
2024/03/07 04:20:57;;;;;;;9.73;6.68;;;23.40;44.90;;;;;;6153780;28;81075;-60
2024/03/07 04:23:57;;;;;;;10.80;6.55;;;23.40;45.20;;;;;;6150693;28;81707;-59
2024/03/07 04:26:58;;;;;;;11.80;7.80;;;23.40;44.70;;;;;;6146690;28;82432;-59
2024/03/07 04:29:59;;;;;;;11.68;7.15;;;23.50;44.50;;;;;;6155425;28;80526;-59
2024/03/07 04:33:00;;;;;;;9.70;6.88;;;23.50;44.40;;;;;;6131899;28;80463;-59
2024/03/07 04:36:02;;;;;;;10.93;7.05;;;23.50;44.50;;;;;;6151235;28;81715;-59
2024/03/07 04:39:04;;;;;;;11.20;6.35;;;23.60;44.20;;;;;;6136080;28;81844;-59
2024/03/07 04:42:05;;;;;;;13.52;7.07;;;23.60;44.20;;;;;;6150617;28;81088;-58
2024/03/07 04:45:06;;;;;;;10.65;6.90;;;23.60;44.50;;;;;;6133964;28;80855;-60
2024/03/07 04:48:08;;;;;;;11.20;7.22;;;23.70;44.40;;;;;;6133805;28;80919;-59
2024/03/07 04:51:09;;;;;;;9.75;6.47;;;23.70;44.50;;;;;;6133004;28;80492;-60
2024/03/07 04:54:09;;;;;;;10.23;6.82;;;23.70;44.40;;;;;;6141128;28;80757;-59
2024/03/07 04:57:11;;;;;;;11.63;7.38;;;23.70;44.30;;;;;;6146531;28;81544;-58
2024/03/07 05:00:14;;;;;;;11.73;7.25;;;23.80;44.40;;;;;;6153804;28;81155;-59
2024/03/07 05:03:15;;;;;;;8.85;5.80;;;23.80;44.90;;;;;;6151325;28;80112;-60
2024/03/07 05:06:16;;;;;;;11.48;6.97;;;23.80;45.10;;;;;;6138021;28;82603;-60
2024/03/07 05:09:22;;;;;;;9.27;6.63;;;23.80;45.40;;;;;;6139261;28;81544;-62
2024/03/07 05:12:23;;;;;;;9.10;6.30;;;23.90;44.80;;;;;;6138884;28;83547;-61
2024/03/07 05:15:25;;;;;;;9.48;6.47;;;23.90;44.70;;;;;;6144123;28;81530;-59
2024/03/07 05:18:26;;;;;;;10.60;6.22;;;23.90;44.70;;;;;;6141720;28;83198;-62
2024/03/07 05:24:36;;;;;;;11.85;7.40;;;23.80;44.70;;;;;;6149517;28;83805;-63
2024/03/07 05:27:38;;;;;;;10.73;6.50;;;23.90;45.20;;;;;;6153073;28;80452;-65
2024/03/07 05:30:38;;;;;;;15.20;7.43;;;23.90;45.40;;;;;;6145563;28;81029;-57
2024/03/07 05:33:40;;;;;;;15.73;6.43;;;23.90;45.40;;;;;;6137934;28;80591;-60
2024/03/07 05:36:49;;;;;;;10.27;6.35;;;23.90;45.40;;;;;;6139975;28;84024;-61
2024/03/07 05:39:50;;;;;;;15.07;6.95;;;23.90;45.50;;;;;;6151092;28;80884;-60
2024/03/07 05:42:50;;;;;;;16.38;7.18;;;23.90;45.30;;;;;;6152579;28;80823;-58
2024/03/07 05:45:51;;;;;;;18.63;6.97;;;23.90;45.30;;;;;;6149700;28;81332;-61
2024/03/07 05:48:55;;;;;;;14.02;6.78;;;23.90;45.40;;;;;;6151868;28;81337;-59
2024/03/07 05:51:57;;;;;;;13.70;6.72;;;23.90;45.70;;;;;;6148586;28;80648;-61
2024/03/07 05:54:58;;;;;;;14.90;6.90;;;23.90;45.60;;;;;;6140102;28;80925;-61
2024/03/07 05:57:58;;;;;;;31.20;6.82;;;23.80;45.40;;;;;;6139537;28;80354;-62
2024/03/07 06:00:59;;;;;;;11.65;7.00;;;23.80;45.40;;;;;;6124751;28;83233;-60
2024/03/07 06:03:59;;;;;;;10.15;6.38;;;23.80;45.30;;;;;;6142709;28;83322;-61
2024/03/07 06:07:00;;;;;;;12.40;7.20;;;23.80;45.40;;;;;;6145992;28;80624;-60
2024/03/07 06:10:01;;;;;;;13.05;7.15;;;23.80;45.10;;;;;;6147548;28;80767;-61
2024/03/07 06:13:01;;;;;;;10.18;6.93;;;23.70;45.10;;;;;;6150698;28;80844;-62
2024/03/07 06:16:05;;;;;;;10.77;5.82;;;23.70;44.90;;;;;;6151978;28;80584;-61
2024/03/07 06:19:08;;;;;;;14.68;7.40;;;23.70;44.90;;;;;;6152587;28;80570;-67
2024/03/07 06:22:10;;;;;;;18.55;7.75;;;23.70;44.90;;;;;;6163576;28;80606;-66
2024/03/07 06:25:18;;;;;;;16.70;7.95;;;23.70;44.90;;;;;;6145123;28;80270;-61
2024/03/07 06:28:19;;;;;;;18.65;6.85;;;23.70;45.10;;;;;;6128820;28;80328;-63
2024/03/07 06:31:20;;;;;;;11.50;6.90;;;23.70;45.00;;;;;;6149490;28;80624;-61
2024/03/07 06:34:21;;;;;;;11.30;6.85;;;23.70;45.00;;;;;;6151536;28;80281;-63
2024/03/07 06:37:21;;;;;;;11.60;6.50;;;23.70;44.90;;;;;;6151081;28;82038;-62
2024/03/07 06:40:22;;;;;;;13.40;7.55;;;23.60;45.00;;;;;;6149832;28;80414;-63
2024/03/07 06:43:22;;;;;;;11.45;7.72;;;23.60;44.90;;;;;;6150008;28;80433;-61
2024/03/07 06:46:23;;;;;;;11.77;7.80;;;23.60;45.30;;;;;;6150301;28;80566;-63
2024/03/07 06:49:24;;;;;;;12.93;7.70;;;23.60;44.90;;;;;;6153373;28;80374;-63
2024/03/07 06:52:24;;;;;;;10.63;7.22;;;23.60;45.10;;;;;;6151993;28;80530;-62
2024/03/07 06:55:27;;;;;;;12.52;8.23;;;23.60;45.10;;;;;;6151845;28;80596;-63
2024/03/07 06:58:27;;;;;;;12.98;7.53;;;23.60;44.50;;;;;;6149948;28;83925;-62
2024/03/07 07:01:29;;;;;;;14.23;7.30;;;23.60;44.60;;;;;;6151175;28;80562;-59
2024/03/07 07:04:41;;;;;;;17.30;8.85;;;23.60;44.30;;;;;;6151035;28;80757;-62
2024/03/07 07:07:41;;;;;;;13.63;7.80;;;23.50;44.90;;;;;;6142224;28;80688;-59
2024/03/07 07:10:42;;;;;;;16.35;8.88;;;23.50;45.30;;;;;;6139794;28;81133;-59
2024/03/07 07:13:43;;;;;;;13.18;8.50;;;23.50;45.70;;;;;;6162268;28;83740;-59
2024/03/07 07:16:45;;;;;;;14.90;8.38;;;23.50;46.20;;;;;;6149410;28;80471;-59
2024/03/07 07:19:46;;;;;;;11.93;8.05;;;23.30;46.90;;;;;;6150675;28;81191;-59
2024/03/07 07:22:47;;;;;;;16.15;8.40;;;23.30;46.90;;;;;;6135610;28;80513;-57
2024/03/07 07:25:47;;;;;;;16.50;10.25;;;23.30;46.90;;;;;;6150527;28;80530;-55
2024/03/07 07:28:48;;;;;;;15.30;9.00;;;23.30;47.20;;;;;;6146018;28;86678;-57
2024/03/07 07:31:48;;;;;;;24.40;9.00;;;23.30;48.40;;;;;;6151468;28;82675;-59
2024/03/07 07:34:49;;;;;;;17.60;8.82;;;23.30;48.50;;;;;;6140509;28;80603;-59
2024/03/07 07:37:50;;;;;;;22.77;10.18;;;23.30;48.90;;;;;;6148897;28;80628;-59
2024/03/07 07:40:50;;;;;;;17.13;8.30;;;23.30;48.80;;;;;;6149111;28;82956;-59
2024/03/07 07:43:51;;;;;;;16.52;8.65;;;23.30;49.10;;;;;;6152571;28;83071;-59
2024/03/07 07:46:51;;;;;;;21.25;9.18;;;23.30;49.20;;;;;;6151525;28;80440;-59
2024/03/07 07:49:52;;;;;;;16.88;9.18;;;23.30;48.90;;;;;;6146096;28;81357;-59
2024/03/07 07:52:53;;;;;;;17.95;9.68;;;23.30;49.10;;;;;;6146063;28;80650;-56
2024/03/07 07:55:53;;;;;;;18.70;10.65;;;23.30;49.20;;;;;;6144127;28;84708;-57
2024/03/07 07:58:54;;;;;;;25.88;10.07;;;23.30;49.20;;;;;;6139714;28;83453;-61
2024/03/07 08:01:55;;;;;;;24.33;9.80;;;23.20;49.90;;;;;;6139763;28;83095;-60
2024/03/07 08:04:56;;;;;;;17.85;9.60;;;23.20;49.40;;;;;;6155173;28;83260;-61
2024/03/07 08:07:57;;;;;;;14.18;8.93;;;23.20;49.30;;;;;;6155124;28;80748;-60
2024/03/07 08:10:59;;;;;;;13.70;8.38;;;23.30;49.30;;;;;;6151584;28;81381;-61
2024/03/07 08:13:59;;;;;;;14.15;7.97;;;23.30;49.70;;;;;;6144094;28;82303;-61
2024/03/07 08:17:00;;;;;;;16.98;9.05;;;23.30;49.50;;;;;;6160273;28;81534;-61
2024/03/07 08:20:00;;;;;;;12.40;7.88;;;23.30;49.40;;;;;;6153035;28;80553;-61
2024/03/07 08:23:01;;;;;;;14.75;8.60;;;23.30;49.70;;;;;;6155498;28;80738;-61
2024/03/07 08:26:01;;;;;;;15.85;8.73;;;23.30;49.60;;;;;;6154231;28;82460;-61
2024/03/07 08:29:02;;;;;;;12.88;7.60;;;23.30;49.60;;;;;;6152477;28;80405;-60
2024/03/07 08:32:03;;;;;;;12.95;7.75;;;23.30;49.50;;;;;;6156124;28;80442;-61
2024/03/07 08:35:06;;;;;;;15.48;7.68;;;23.30;49.60;;;;;;6154700;28;80761;-61
2024/03/07 08:38:08;;;;;;;15.00;8.48;;;23.30;49.60;;;;;;6143633;28;80618;-60
2024/03/07 08:41:11;;;;;;;18.90;9.25;;;23.30;49.50;;;;;;6155755;28;80463;-61
2024/03/07 08:44:13;;;;;;;13.18;7.43;;;23.30;49.60;;;;;;6152274;28;81676;-61
2024/03/07 08:47:13;;;;;;;13.13;7.85;;;23.30;49.60;;;;;;6154917;28;80560;-61
2024/03/07 08:50:14;;;;;;;11.38;7.15;;;23.30;49.50;;;;;;6151264;28;85330;-61
2024/03/07 08:53:14;;;;;;;14.57;8.40;;;23.30;49.50;;;;;;6155501;28;80400;-61
2024/03/07 08:56:15;;;;;;;11.90;7.25;;;23.30;49.50;;;;;;6154553;28;80508;-61
2024/03/07 08:59:17;;;;;;;15.82;7.78;;;23.30;49.40;;;;;;6150031;28;80524;-61
2024/03/07 09:02:18;;;;;;;14.23;7.93;;;23.30;49.40;;;;;;6154545;28;80419;-61
2024/03/07 09:05:19;;;;;;;15.52;8.27;;;23.30;49.30;;;;;;6152834;28;80430;-62
2024/03/07 09:08:19;;;;;;;13.60;9.00;;;23.30;49.20;;;;;;6151414;28;82384;-62
2024/03/07 09:11:20;;;;;;;11.48;7.72;;;23.30;48.90;;;;;;6147397;28;82029;-59
2024/03/07 09:14:20;;;;;;;12.93;7.25;;;23.30;49.00;;;;;;6144022;28;81471;-59
2024/03/07 09:17:21;;;;;;;12.48;8.25;;;23.30;49.20;;;;;;6148403;28;80583;-58
2024/03/07 09:20:23;;;;;;;13.48;7.60;;;23.20;48.80;;;;;;6149929;28;80794;-58
2024/03/07 09:23:24;;;;;;;14.52;6.93;;;23.30;48.70;;;;;;6152271;28;80802;-58
2024/03/07 09:26:25;;;;;;;14.00;8.25;;;23.30;48.60;;;;;;6153839;28;82124;-58
2024/03/07 09:29:25;;;;;;;11.80;7.57;;;23.30;48.40;;;;;;6153220;28;81268;-59
2024/03/07 09:32:27;;;;;;;11.23;8.38;;;23.30;48.40;;;;;;6153125;28;80611;-58
2024/03/07 09:35:28;;;;;;;10.80;7.40;;;23.30;48.30;;;;;;6153447;28;80770;-58
2024/03/07 09:38:28;;;;;;;11.27;6.78;;;23.30;48.20;;;;;;6153377;28;81687;-58
2024/03/07 09:41:29;;;;;;;13.35;7.55;;;23.30;48.20;;;;;;6154082;28;81078;-60
2024/03/07 09:44:30;;;;;;;11.50;6.95;;;23.20;48.40;;;;;;6154307;28;81297;-60
2024/03/07 09:47:31;;;;;;;16.05;7.88;;;23.30;48.30;;;;;;6152259;28;82422;-60
2024/03/07 09:50:32;;;;;;;10.25;7.03;;;23.20;48.10;;;;;;6149807;28;80771;-60
2024/03/07 09:53:32;;;;;;;10.35;7.35;;;23.20;48.20;;;;;;6138369;28;82160;-60
2024/03/07 09:56:35;;;;;;;11.07;7.28;;;23.20;47.80;;;;;;6144269;28;80283;-59
2024/03/07 09:59:40;;;;;;;12.77;6.78;;;23.20;47.80;;;;;;6148462;28;80382;-60
2024/03/07 10:02:40;;;;;;;11.25;6.97;;;23.20;47.60;;;;;;6153191;28;81667;-60
2024/03/07 10:05:41;;;;;;;13.40;8.38;;;23.20;47.50;;;;;;6153583;28;80297;-60
2024/03/07 10:08:43;;;;;;;12.68;7.30;;;23.20;47.40;;;;;;6153577;28;81547;-60
2024/03/07 10:11:43;;;;;;;10.75;7.72;;;23.20;47.50;;;;;;6141490;28;81864;-60
2024/03/07 10:14:44;;;;;;;12.55;8.55;;;23.10;47.30;;;;;;6152074;28;80417;-60
2024/03/07 10:17:44;;;;;;;16.35;7.63;;;23.10;47.20;;;;;;6153847;28;80593;-60
2024/03/07 10:20:45;;;;;;;12.20;6.82;;;23.20;47.50;;;;;;6151665;28;82778;-60
2024/03/07 10:23:46;;;;;;;12.18;7.63;;;23.20;47.50;;;;;;6152114;28;80652;-61
2024/03/07 10:26:46;;;;;;;10.18;6.93;;;23.10;47.40;;;;;;6141592;28;80483;-59
2024/03/07 10:29:47;;;;;;;13.27;7.40;;;23.10;47.40;;;;;;6149897;28;80457;-61
2024/03/07 10:32:48;;;;;;;10.38;7.03;;;23.10;47.60;;;;;;6150045;28;81576;-61
2024/03/07 10:35:49;;;;;;;11.65;7.88;;;23.10;47.60;;;;;;6153974;28;80537;-60
2024/03/07 10:38:49;;;;;;;12.15;7.75;;;23.10;47.50;;;;;;6140827;28;80710;-60
2024/03/07 10:41:50;;;;;;;12.80;6.93;;;23.20;47.40;;;;;;6132062;28;80507;-59
2024/03/07 10:44:50;;;;;;;13.77;7.22;;;23.10;47.50;;;;;;6147367;28;80787;-59
2024/03/07 10:47:51;;;;;;;12.75;7.10;;;23.10;47.40;;;;;;6142106;28;81686;-60
2024/03/07 10:50:53;;;;;;;7.93;6.40;;;23.20;47.40;;;;;;6144032;28;81446;-60
2024/03/07 10:53:57;;;;;;;13.02;7.70;;;23.20;47.30;;;;;;6145865;28;80788;-60
2024/03/07 10:56:58;;;;;;;9.88;7.15;;;23.20;47.20;;;;;;6136408;28;80000;-60
2024/03/07 10:59:58;;;;;;;14.65;7.38;;;23.20;47.20;;;;;;6152449;28;83361;-60
2024/03/07 11:02:59;;;;;;;12.05;7.10;;;23.20;47.20;;;;;;6139362;28;83022;-60
2024/03/07 11:06:00;;;;;;;9.85;7.22;;;23.20;47.10;;;;;;6145711;28;80870;-60
2024/03/07 11:09:01;;;;;;;10.55;7.50;;;23.20;47.10;;;;;;6146120;28;81365;-60
2024/03/07 11:12:06;;;;;;;13.32;7.38;;;23.20;47.10;;;;;;6149259;28;80331;-60
2024/03/07 11:15:06;;;;;;;11.67;7.60;;;23.20;47.00;;;;;;6150964;28;86291;-60
2024/03/07 11:18:08;;;;;;;13.15;8.40;;;23.20;47.00;;;;;;6148545;28;82512;-61
2024/03/07 11:21:08;;;;;;;9.55;7.25;;;23.20;47.10;;;;;;6140888;28;81262;-61
2024/03/07 11:24:09;;;;;;;11.27;7.07;;;23.20;47.50;;;;;;6139692;28;80733;-60
2024/03/07 11:27:09;;;;;;;9.48;6.40;;;23.10;46.80;;;;;;6145698;28;80394;-60
2024/03/07 11:30:10;;;;;;;10.32;7.35;;;23.10;46.90;;;;;;6151189;28;80337;-60
2024/03/07 11:33:13;;;;;;;12.60;7.88;;;23.10;47.20;;;;;;6153311;28;80334;-60
2024/03/07 11:36:14;;;;;;;12.52;7.82;;;23.20;47.10;;;;;;6141152;28;81846;-57
2024/03/07 11:39:24;;;;;;;19.98;7.68;;;23.10;46.80;;;;;;6142149;28;81157;-59
2024/03/07 11:42:28;;;;;;;10.60;7.43;;;23.10;46.90;;;;;;6148721;28;81181;-59
2024/03/07 11:45:30;;;;;;;12.00;7.22;;;23.10;46.90;;;;;;6152209;28;80600;-58
2024/03/07 11:48:31;;;;;;;13.07;7.63;;;23.10;46.80;;;;;;6150194;28;81496;-56
2024/03/07 11:51:31;;;;;;;11.98;7.60;;;23.10;46.70;;;;;;6148321;28;80377;-61
2024/03/07 11:54:32;;;;;;;10.85;7.07;;;23.10;46.90;;;;;;6152664;28;80449;-60
2024/03/07 11:57:32;;;;;;;11.07;7.95;;;23.10;47.10;;;;;;6152503;28;80999;-60
2024/03/07 12:00:34;;;;;;;9.60;7.53;;;23.10;46.80;;;;;;6152944;28;81884;-60
2024/03/07 12:03:35;;;;;;;10.88;7.90;;;23.10;46.70;;;;;;6144932;28;81767;-60
2024/03/07 12:06:36;;;;;;;17.25;11.25;;;23.10;46.50;;;;;;6136493;28;80565;-60
2024/03/07 12:09:37;;;;;;;14.82;10.18;;;23.10;46.50;;;;;;6125161;28;83162;-60
2024/03/07 12:12:40;;;;;;;20.63;11.15;;;23.10;46.50;;;;;;6136216;28;83898;-60
2024/03/07 12:15:42;;;;;;;21.60;10.75;;;23.10;46.50;;;;;;6148370;28;82878;-60
2024/03/07 12:18:43;;;;;;;22.38;13.05;;;23.10;46.30;;;;;;6148777;28;84165;-61
2024/03/07 12:21:44;;;;;;;22.98;12.65;;;23.10;46.50;;;;;;6147991;28;84380;-57
2024/03/07 12:24:45;;;;;;;26.05;13.27;;;23.10;46.40;;;;;;6145735;28;83770;-58
2024/03/07 12:27:46;;;;;;;23.20;12.32;;;23.10;46.50;;;;;;6123545;28;83477;-60
2024/03/07 12:30:47;;;;;;;24.50;11.15;;;23.10;46.30;;;;;;6127670;28;83839;-59
2024/03/07 12:33:51;;;;;;;17.80;11.32;;;23.10;46.60;;;;;;6145692;28;83890;-60
2024/03/07 12:36:55;;;;;;;22.08;10.55;;;23.10;46.50;;;;;;6152394;28;84333;-59
2024/03/07 12:40:01;;;;;;;18.45;10.23;;;23.10;46.40;;;;;;6140499;28;83318;-59
2024/03/07 12:43:01;;;;;;;17.20;10.27;;;23.10;46.40;;;;;;6147542;28;85965;-60
2024/03/07 12:46:04;;;;;;;21.55;9.93;;;23.10;46.50;;;;;;6146493;28;83237;-58
2024/03/07 12:49:04;;;;;;;18.05;9.25;;;23.10;46.40;;;;;;6137697;28;83580;-58
2024/03/07 12:52:07;;;;;;;21.95;9.68;;;23.10;46.40;;;;;;6132461;28;81306;-60
2024/03/07 12:55:08;;;;;;;13.65;8.00;;;23.10;46.60;;;;;;6150742;28;83923;-59
2024/03/07 12:58:09;;;;;;;14.48;8.05;;;23.10;46.40;;;;;;6140384;28;80483;-58
2024/03/07 13:01:11;;;;;;;16.42;8.82;;;23.10;46.60;;;;;;6137776;28;80347;-59
2024/03/07 13:04:11;;;;;;;12.05;7.38;;;23.10;46.60;;;;;;6145673;28;81248;-55
2024/03/07 13:07:15;;;;;;;16.40;7.80;;;23.10;46.60;;;;;;6151577;28;80610;-56
2024/03/07 13:10:18;;;;;;;12.50;7.40;;;23.10;46.50;;;;;;6146381;28;80434;-56
2024/03/07 13:13:20;;;;;;;13.18;8.00;;;23.10;46.40;;;;;;6132179;28;80896;-58
2024/03/07 13:16:20;;;;;;;12.35;7.35;;;23.10;46.50;;;;;;6146844;28;82377;-58
2024/03/07 13:19:21;;;;;;;14.48;7.55;;;23.10;46.20;;;;;;6138462;28;80792;-59
2024/03/07 13:22:24;;;;;;;14.30;7.75;;;23.10;46.20;;;;;;6151732;28;80578;-58
2024/03/07 13:25:25;;;;;;;14.13;7.95;;;23.10;46.10;;;;;;6151628;28;81064;-59
2024/03/07 13:28:25;;;;;;;12.35;7.20;;;23.10;46.00;;;;;;6153248;28;80552;-58
2024/03/07 13:31:26;;;;;;;11.02;6.85;;;23.10;46.00;;;;;;6152455;28;81161;-59
2024/03/07 13:34:28;;;;;;;10.85;7.03;;;23.10;46.40;;;;;;6150974;28;80831;-59
2024/03/07 13:37:33;;;;;;;11.48;7.05;;;23.10;46.30;;;;;;6152490;28;80508;-58
2024/03/07 13:40:39;;;;;;;10.57;6.78;;;23.10;46.30;;;;;;6151701;28;80387;-59
2024/03/07 13:43:40;;;;;;;10.57;6.53;;;23.10;46.40;;;;;;6151673;28;80420;-59
2024/03/07 13:46:41;;;;;;;20.15;6.55;;;23.10;46.60;;;;;;6149046;28;80669;-59
2024/03/07 13:49:42;;;;;;;9.52;7.10;;;23.10;46.60;;;;;;6148121;28;80251;-60
2024/03/07 13:53:04;;;;;;;10.98;6.43;;;23.10;46.50;;;;;;6153846;28;84673;-59
2024/03/07 13:56:05;;;;;;;13.93;7.53;;;23.10;46.60;;;;;;6140159;28;84827;-60
2024/03/07 13:59:08;;;;;;;17.25;7.18;;;23.20;46.60;;;;;;6148898;28;83103;-59
2024/03/07 14:02:09;;;;;;;11.05;6.35;;;23.20;46.70;;;;;;6146874;28;80529;-59
2024/03/07 14:05:12;;;;;;;13.25;7.20;;;23.10;46.40;;;;;;6149901;28;83863;-59
2024/03/07 14:08:14;;;;;;;13.15;7.22;;;23.10;47.20;;;;;;6148176;28;81788;-62
2024/03/07 14:11:15;;;;;;;11.60;7.07;;;23.10;47.00;;;;;;6133704;28;81203;-60
2024/03/07 14:14:15;;;;;;;10.20;7.15;;;23.20;46.70;;;;;;6136555;28;80567;-62
2024/03/07 14:17:16;;;;;;;14.18;7.82;;;23.20;46.60;;;;;;6143903;28;80818;-59
2024/03/07 14:20:20;;;;;;;11.45;7.22;;;23.10;46.90;;;;;;6144557;28;80802;-59
2024/03/07 14:23:22;;;;;;;10.02;6.75;;;23.10;46.70;;;;;;6150792;28;80382;-61
2024/03/07 14:26:22;;;;;;;14.07;7.05;;;23.20;46.80;;;;;;6151143;28;80455;-61
2024/03/07 14:29:23;;;;;;;10.13;6.75;;;23.20;46.70;;;;;;6144879;28;81474;-60
2024/03/07 14:32:24;;;;;;;11.55;6.47;;;23.20;46.80;;;;;;6149839;28;80827;-60
2024/03/07 14:35:29;;;;;;;15.25;6.80;;;23.10;46.60;;;;;;6145553;28;80468;-60
2024/03/07 14:38:29;;;;;;;11.02;6.68;;;23.10;46.70;;;;;;6144371;28;81602;-60
2024/03/07 14:41:30;;;;;;;26.70;7.20;;;23.10;46.80;;;;;;6138362;28;80754;-60
2024/03/07 14:44:31;;;;;;;11.75;6.55;;;23.20;46.80;;;;;;6155494;28;84029;-61
2024/03/07 14:47:31;;;;;;;15.95;6.07;;;23.10;46.70;;;;;;6130594;28;80645;-61
2024/03/07 14:50:32;;;;;;;17.25;7.38;;;23.10;46.70;;;;;;6130365;28;80332;-60
2024/03/07 14:53:32;;;;;;;17.08;6.75;;;23.10;46.70;;;;;;6144121;28;83182;-61
2024/03/07 14:56:34;;;;;;;16.48;6.72;;;23.10;46.80;;;;;;6131555;28;81291;-60
2024/03/07 14:59:34;;;;;;;11.73;6.43;;;23.10;47.00;;;;;;6145715;28;81072;-60
2024/03/07 15:02:37;;;;;;;14.15;6.82;;;23.10;47.00;;;;;;6142909;28;81346;-59
2024/03/07 15:05:37;;;;;;;10.20;6.20;;;23.10;46.90;;;;;;6151310;28;83435;-59
2024/03/07 15:08:38;;;;;;;17.05;6.07;;;23.10;46.90;;;;;;6147814;28;81211;-60
2024/03/07 15:11:40;;;;;;;12.60;6.38;;;23.10;46.90;;;;;;6142619;28;81709;-59
2024/03/07 15:14:40;;;;;;;33.42;6.65;;;23.10;47.10;;;;;;6134867;28;80619;-59
2024/03/07 15:17:41;;;;;;;13.80;5.75;;;23.10;47.30;;;;;;6130085;28;80469;-60
2024/03/07 15:20:42;;;;;;;10.35;5.65;;;23.10;47.30;;;;;;6130483;28;83012;-59
2024/03/07 15:23:42;;;;;;;24.95;6.25;;;23.10;47.50;;;;;;6153902;28;80786;-61
2024/03/07 15:26:43;;;;;;;16.75;6.03;;;23.10;47.50;;;;;;6151985;28;81743;-62
2024/03/07 15:29:44;;;;;;;18.83;5.70;;;23.20;47.60;;;;;;6148685;28;81119;-61
2024/03/07 15:32:44;;;;;;;10.55;5.53;;;23.20;47.80;;;;;;6150982;28;81159;-61
2024/03/07 15:35:46;;;;;;;21.73;5.93;;;23.10;47.80;;;;;;6148657;28;80923;-62